sensor_id;sensor_type;location;lat;lon;timestamp;pressure;altitude;pressure_sealevel;temperature;humidity
15914;BME280;8055;51.930;8.840;2022-07-29T00:01:59;99717.31;;;17.94;52.57
15914;BME280;8055;51.930;8.840;2022-07-29T00:04:24;99713.81;;;17.87;52.35
15914;BME280;8055;51.930;8.840;2022-07-29T00:06:50;99710.66;;;17.84;52.82
15914;BME280;8055;51.930;8.840;2022-07-29T00:09:15;99704.72;;;17.87;52.79
15914;BME280;8055;51.930;8.840;2022-07-29T00:11:40;99699.88;;;17.82;52.45
15914;BME280;8055;51.930;8.840;2022-07-29T00:14:06;99707.22;;;17.88;52.26
15914;BME280;8055;51.930;8.840;2022-07-29T00:16:32;99698.97;;;17.88;52.31
15914;BME280;8055;51.930;8.840;2022-07-29T00:18:57;99696.94;;;17.84;52.80
15914;BME280;8055;51.930;8.840;2022-07-29T00:21:22;99695.66;;;17.79;52.99
15914;BME280;8055;51.930;8.840;2022-07-29T00:23:48;99692.31;;;17.77;52.59
15914;BME280;8055;51.930;8.840;2022-07-29T00:26:13;99688.06;;;17.82;52.89
15914;BME280;8055;51.930;8.840;2022-07-29T00:28:38;99683.41;;;17.82;52.95
15914;BME280;8055;51.930;8.840;2022-07-29T00:31:04;99684.69;;;17.79;53.63
15914;BME280;8055;51.930;8.840;2022-07-29T00:33:29;99682.19;;;17.78;52.46
15914;BME280;8055;51.930;8.840;2022-07-29T00:35:55;99676.69;;;17.78;52.77
15914;BME280;8055;51.930;8.840;2022-07-29T00:38:20;99678.50;;;17.59;52.91
15914;BME280;8055;51.930;8.840;2022-07-29T00:40:46;99672.56;;;17.62;52.70
15914;BME280;8055;51.930;8.840;2022-07-29T00:43:13;99667.91;;;17.63;53.01
15914;BME280;8055;51.930;8.840;2022-07-29T00:45:41;99673.59;;;17.61;52.94
15914;BME280;8055;51.930;8.840;2022-07-29T00:48:07;99671.94;;;17.60;53.36
15914;BME280;8055;51.930;8.840;2022-07-29T00:50:34;99668.75;;;17.63;53.13
15914;BME280;8055;51.930;8.840;2022-07-29T00:53:03;99671.53;;;17.56;53.82
15914;BME280;8055;51.930;8.840;2022-07-29T00:55:29;99669.88;;;17.55;54.44
15914;BME280;8055;51.930;8.840;2022-07-29T00:57:55;99665.84;;;17.58;53.68
15914;BME280;8055;51.930;8.840;2022-07-29T01:00:23;99666.28;;;17.55;53.73
15914;BME280;8055;51.930;8.840;2022-07-29T01:02:50;99660.72;;;17.62;53.56
15914;BME280;8055;51.930;8.840;2022-07-29T01:05:20;99657.38;;;17.60;53.66
15914;BME280;8055;51.930;8.840;2022-07-29T01:07:49;99666.44;;;17.60;53.17
15914;BME280;8055;51.930;8.840;2022-07-29T01:10:16;99664.47;;;17.67;52.93
15914;BME280;8055;51.930;8.840;2022-07-29T01:12:44;99661.34;;;17.64;53.24
15914;BME280;8055;51.930;8.840;2022-07-29T01:15:12;99655.50;;;17.53;53.53
15914;BME280;8055;51.930;8.840;2022-07-29T01:31:26;99637.06;;;17.61;52.78
15914;BME280;8055;51.930;8.840;2022-07-29T01:33:59;99634.16;;;17.55;53.14
15914;BME280;8055;51.930;8.840;2022-07-29T01:36:36;99636.69;;;17.57;53.14
15914;BME280;8055;51.930;8.840;2022-07-29T01:39:12;99629.78;;;17.48;53.61
15914;BME280;8055;51.930;8.840;2022-07-29T01:41:50;99634.44;;;17.47;53.33
15914;BME280;8055;51.930;8.840;2022-07-29T01:44:23;99635.06;;;17.49;52.83
15914;BME280;8055;51.930;8.840;2022-07-29T01:46:54;99620.25;;;17.50;52.92
15914;BME280;8055;51.930;8.840;2022-07-29T01:49:25;99628.94;;;17.47;53.13
15914;BME280;8055;51.930;8.840;2022-07-29T01:51:56;99631.69;;;17.47;52.55
15914;BME280;8055;51.930;8.840;2022-07-29T01:54:39;99623.28;;;17.42;52.87
15914;BME280;8055;51.930;8.840;2022-07-29T01:57:09;99626.47;;;17.39;52.86
15914;BME280;8055;51.930;8.840;2022-07-29T01:59:37;99619.94;;;17.40;52.66
15914;BME280;8055;51.930;8.840;2022-07-29T02:02:04;99614.66;;;17.39;52.65
15914;BME280;8055;51.930;8.840;2022-07-29T02:04:33;99609.22;;;17.32;53.13
15914;BME280;8055;51.930;8.840;2022-07-29T02:07:06;99607.31;;;17.32;52.84
15914;BME280;8055;51.930;8.840;2022-07-29T02:09:34;99615.78;;;17.31;53.37
15914;BME280;8055;51.930;8.840;2022-07-29T02:12:02;99615.97;;;17.29;53.21
15914;BME280;8055;51.930;8.840;2022-07-29T02:14:41;99614.56;;;17.27;53.40
15914;BME280;8055;51.930;8.840;2022-07-29T02:17:07;99624.06;;;17.24;53.61
15914;BME280;8055;51.930;8.840;2022-07-29T02:19:34;99619.41;;;17.25;53.37
15914;BME280;8055;51.930;8.840;2022-07-29T02:22:03;99618.34;;;17.26;53.40
15914;BME280;8055;51.930;8.840;2022-07-29T02:24:30;99613.16;;;17.18;53.46
15914;BME280;8055;51.930;8.840;2022-07-29T02:26:57;99602.41;;;17.09;53.61
15914;BME280;8055;51.930;8.840;2022-07-29T02:29:26;99605.16;;;17.09;53.76
15914;BME280;8055;51.930;8.840;2022-07-29T02:31:52;99602.25;;;17.04;53.49
15914;BME280;8055;51.930;8.840;2022-07-29T02:34:20;99603.94;;;17.05;53.88
15914;BME280;8055;51.930;8.840;2022-07-29T02:36:46;99589.78;;;17.08;53.81
15914;BME280;8055;51.930;8.840;2022-07-29T02:39:13;99586.84;;;17.03;55.05
15914;BME280;8055;51.930;8.840;2022-07-29T02:41:43;99597.19;;;17.01;54.23
15914;BME280;8055;51.930;8.840;2022-07-29T02:44:12;99598.25;;;17.00;54.33
15914;BME280;8055;51.930;8.840;2022-07-29T02:46:42;99597.44;;;17.00;54.61
15914;BME280;8055;51.930;8.840;2022-07-29T02:49:16;99588.81;;;16.96;54.44
15914;BME280;8055;51.930;8.840;2022-07-29T02:51:53;99588.81;;;16.96;54.48
15914;BME280;8055;51.930;8.840;2022-07-29T02:56:53;99603.16;;;16.92;53.86
15914;BME280;8055;51.930;8.840;2022-07-29T02:59:23;99593.03;;;16.92;54.71
15914;BME280;8055;51.930;8.840;2022-07-29T03:01:52;99596.06;;;16.84;54.60
15914;BME280;8055;51.930;8.840;2022-07-29T03:04:19;99599.03;;;16.76;54.79
15914;BME280;8055;51.930;8.840;2022-07-29T03:06:46;99600.75;;;16.77;54.68
15914;BME280;8055;51.930;8.840;2022-07-29T03:09:13;99595.69;;;16.74;54.65
15914;BME280;8055;51.930;8.840;2022-07-29T03:11:40;99590.41;;;16.72;55.40
15914;BME280;8055;51.930;8.840;2022-07-29T03:14:06;99593.19;;;16.65;55.22
15914;BME280;8055;51.930;8.840;2022-07-29T03:16:33;99600.97;;;16.69;55.20
15914;BME280;8055;51.930;8.840;2022-07-29T03:19:01;99599.34;;;16.61;55.29
15914;BME280;8055;51.930;8.840;2022-07-29T03:21:27;99592.50;;;16.70;54.84
15914;BME280;8055;51.930;8.840;2022-07-29T03:23:53;99589.34;;;16.66;55.44
15914;BME280;8055;51.930;8.840;2022-07-29T03:26:18;99592.94;;;16.67;55.01
15914;BME280;8055;51.930;8.840;2022-07-29T03:28:44;99590.44;;;16.65;55.04
15914;BME280;8055;51.930;8.840;2022-07-29T03:31:09;99596.16;;;16.64;54.92
15914;BME280;8055;51.930;8.840;2022-07-29T03:33:35;99598.03;;;16.63;55.39
15914;BME280;8055;51.930;8.840;2022-07-29T03:36:00;99596.56;;;16.68;54.79
15914;BME280;8055;51.930;8.840;2022-07-29T03:38:29;99591.75;;;16.56;55.35
15914;BME280;8055;51.930;8.840;2022-07-29T03:41:00;99588.81;;;16.58;55.63
15914;BME280;8055;51.930;8.840;2022-07-29T03:43:30;99589.84;;;16.57;55.55
15914;BME280;8055;51.930;8.840;2022-07-29T03:45:57;99592.81;;;16.55;55.93
15914;BME280;8055;51.930;8.840;2022-07-29T03:48:26;99593.03;;;16.54;55.91
15914;BME280;8055;51.930;8.840;2022-07-29T03:50:51;99590.28;;;16.54;55.52
15914;BME280;8055;51.930;8.840;2022-07-29T03:53:17;99587.56;;;16.47;55.58
15914;BME280;8055;51.930;8.840;2022-07-29T03:55:47;99591.97;;;16.48;55.89
15914;BME280;8055;51.930;8.840;2022-07-29T03:58:14;99585.91;;;16.46;56.52
15914;BME280;8055;51.930;8.840;2022-07-29T04:00:41;99585.06;;;16.46;56.30
15914;BME280;8055;51.930;8.840;2022-07-29T04:03:08;99575.81;;;16.40;56.57
15914;BME280;8055;51.930;8.840;2022-07-29T04:05:34;99582.13;;;16.40;56.40
15914;BME280;8055;51.930;8.840;2022-07-29T04:07:59;99578.72;;;16.45;55.79
15914;BME280;8055;51.930;8.840;2022-07-29T04:10:25;99574.09;;;16.46;57.03
15914;BME280;8055;51.930;8.840;2022-07-29T04:12:50;99584.44;;;16.43;56.40
15914;BME280;8055;51.930;8.840;2022-07-29T04:15:16;99590.56;;;16.46;56.30
15914;BME280;8055;51.930;8.840;2022-07-29T04:17:42;99584.03;;;16.40;56.92
15914;BME280;8055;51.930;8.840;2022-07-29T04:20:08;99587.13;;;16.50;56.30
15914;BME280;8055;51.930;8.840;2022-07-29T04:22:34;99589.44;;;16.53;56.13
15914;BME280;8055;51.930;8.840;2022-07-29T04:24:59;99591.59;;;16.45;56.14
15914;BME280;8055;51.930;8.840;2022-07-29T04:27:25;99587.38;;;16.42;56.05
15914;BME280;8055;51.930;8.840;2022-07-29T04:29:50;99591.41;;;16.39;56.42
15914;BME280;8055;51.930;8.840;2022-07-29T04:32:16;99582.78;;;16.36;56.27
15914;BME280;8055;51.930;8.840;2022-07-29T04:34:41;99596.06;;;16.39;56.27
15914;BME280;8055;51.930;8.840;2022-07-29T04:37:07;99590.59;;;16.39;56.82
15914;BME280;8055;51.930;8.840;2022-07-29T04:39:32;99601.75;;;16.37;57.06
15914;BME280;8055;51.930;8.840;2022-07-29T04:41:57;99597.53;;;16.35;56.70
15914;BME280;8055;51.930;8.840;2022-07-29T04:44:23;99596.50;;;16.36;56.99
15914;BME280;8055;51.930;8.840;2022-07-29T04:46:48;99597.75;;;16.40;56.67
15914;BME280;8055;51.930;8.840;2022-07-29T04:49:14;99588.03;;;16.37;56.71
15914;BME280;8055;51.930;8.840;2022-07-29T04:51:39;99590.31;;;16.47;56.77
15914;BME280;8055;51.930;8.840;2022-07-29T04:54:05;99599.13;;;16.56;56.21
15914;BME280;8055;51.930;8.840;2022-07-29T04:56:31;99595.56;;;16.55;56.53
15914;BME280;8055;51.930;8.840;2022-07-29T04:58:56;99593.41;;;16.64;56.11
15914;BME280;8055;51.930;8.840;2022-07-29T05:01:22;99589.63;;;16.58;56.55
15914;BME280;8055;51.930;8.840;2022-07-29T05:03:47;99596.78;;;16.59;56.29
15914;BME280;8055;51.930;8.840;2022-07-29T05:06:13;99598.69;;;16.59;56.45
15914;BME280;8055;51.930;8.840;2022-07-29T05:08:38;99599.97;;;16.56;56.42
15914;BME280;8055;51.930;8.840;2022-07-29T05:11:04;99597.22;;;16.56;56.87
15914;BME280;8055;51.930;8.840;2022-07-29T05:13:29;99597.22;;;16.56;56.72
15914;BME280;8055;51.930;8.840;2022-07-29T05:15:55;99596.34;;;16.62;56.85
15914;BME280;8055;51.930;8.840;2022-07-29T05:18:20;99589.59;;;16.65;56.70
15914;BME280;8055;51.930;8.840;2022-07-29T05:20:46;99593.84;;;16.61;56.53
15914;BME280;8055;51.930;8.840;2022-07-29T05:23:12;99591.75;;;16.56;57.44
15914;BME280;8055;51.930;8.840;2022-07-29T05:25:40;99585.38;;;16.62;57.01
15914;BME280;8055;51.930;8.840;2022-07-29T05:28:06;99591.91;;;16.68;56.57
15914;BME280;8055;51.930;8.840;2022-07-29T05:30:31;99579.72;;;16.57;56.45
15914;BME280;8055;51.930;8.840;2022-07-29T05:32:57;99591.72;;;16.63;56.56
15914;BME280;8055;51.930;8.840;2022-07-29T05:35:22;99586.41;;;16.68;56.81
15914;BME280;8055;51.930;8.840;2022-07-29T05:37:48;99585.59;;;16.68;57.46
15914;BME280;8055;51.930;8.840;2022-07-29T05:40:13;99586.81;;;16.72;57.21
15914;BME280;8055;51.930;8.840;2022-07-29T05:42:39;99583.25;;;16.71;57.62
15914;BME280;8055;51.930;8.840;2022-07-29T05:45:04;99581.56;;;16.77;56.71
15914;BME280;8055;51.930;8.840;2022-07-29T05:47:30;99584.06;;;16.78;56.63
15914;BME280;8055;51.930;8.840;2022-07-29T05:49:56;99588.22;;;16.87;56.91
15914;BME280;8055;51.930;8.840;2022-07-29T05:52:22;99590.56;;;16.84;57.54
15914;BME280;8055;51.930;8.840;2022-07-29T05:54:48;99584.00;;;16.85;58.19
15914;BME280;8055;51.930;8.840;2022-07-29T05:57:22;99583.56;;;16.88;58.06
15914;BME280;8055;51.930;8.840;2022-07-29T05:59:48;99582.50;;;16.89;57.77
15914;BME280;8055;51.930;8.840;2022-07-29T06:02:15;99589.63;;;16.97;57.25
15914;BME280;8055;51.930;8.840;2022-07-29T06:04:40;99590.72;;;16.96;58.05
15914;BME280;8055;51.930;8.840;2022-07-29T06:07:06;99589.84;;;16.95;58.26
15914;BME280;8055;51.930;8.840;2022-07-29T06:09:32;99600.22;;;16.93;58.02
15914;BME280;8055;51.930;8.840;2022-07-29T06:11:57;99594.00;;;17.04;57.67
15914;BME280;8055;51.930;8.840;2022-07-29T06:14:23;99590.81;;;17.07;57.92
15914;BME280;8055;51.930;8.840;2022-07-29T06:16:49;99593.81;;;17.06;58.14
15914;BME280;8055;51.930;8.840;2022-07-29T06:19:14;99586.34;;;17.13;58.81
15914;BME280;8055;51.930;8.840;2022-07-29T06:21:42;99588.59;;;17.23;57.92
15914;BME280;8055;51.930;8.840;2022-07-29T06:24:09;99583.50;;;17.26;57.67
15914;BME280;8055;51.930;8.840;2022-07-29T06:26:35;99582.78;;;17.38;57.80
15914;BME280;8055;51.930;8.840;2022-07-29T06:29:00;99589.94;;;17.39;57.31
15914;BME280;8055;51.930;8.840;2022-07-29T06:31:26;99583.78;;;17.43;57.31
15914;BME280;8055;51.930;8.840;2022-07-29T06:33:51;99583.94;;;17.48;57.01
15914;BME280;8055;51.930;8.840;2022-07-29T06:36:18;99598.75;;;17.47;57.33
15914;BME280;8055;51.930;8.840;2022-07-29T06:38:43;99590.69;;;17.52;56.82
15914;BME280;8055;51.930;8.840;2022-07-29T06:41:08;99588.69;;;17.60;56.84
15914;BME280;8055;51.930;8.840;2022-07-29T06:43:41;99595.66;;;17.62;56.60
15914;BME280;8055;51.930;8.840;2022-07-29T06:46:09;99592.53;;;17.58;57.22
15914;BME280;8055;51.930;8.840;2022-07-29T06:48:35;99583.97;;;17.67;57.25
15914;BME280;8055;51.930;8.840;2022-07-29T06:51:04;99589.66;;;17.72;57.25
15914;BME280;8055;51.930;8.840;2022-07-29T06:53:31;99593.59;;;17.76;56.45
15914;BME280;8055;51.930;8.840;2022-07-29T06:55:57;99597.63;;;17.80;57.05
15914;BME280;8055;51.930;8.840;2022-07-29T06:58:24;99592.16;;;17.80;57.32
15914;BME280;8055;51.930;8.840;2022-07-29T07:00:51;99592.97;;;17.80;56.61
15914;BME280;8055;51.930;8.840;2022-07-29T07:03:17;99592.72;;;17.82;56.87
15914;BME280;8055;51.930;8.840;2022-07-29T07:05:43;99585.13;;;17.84;56.51
15914;BME280;8055;51.930;8.840;2022-07-29T07:08:09;99594.13;;;17.91;56.80
15914;BME280;8055;51.930;8.840;2022-07-29T07:10:35;99592.66;;;17.89;57.47
15914;BME280;8055;51.930;8.840;2022-07-29T07:13:01;99594.75;;;17.93;57.16
15914;BME280;8055;51.930;8.840;2022-07-29T07:15:27;99591.47;;;18.03;56.37
15914;BME280;8055;51.930;8.840;2022-07-29T07:17:53;99596.44;;;18.13;56.33
15914;BME280;8055;51.930;8.840;2022-07-29T07:20:18;99591.47;;;18.21;56.31
15914;BME280;8055;51.930;8.840;2022-07-29T07:22:44;99591.13;;;18.30;56.08
15914;BME280;8055;51.930;8.840;2022-07-29T07:25:10;99595.41;;;18.44;55.92
15914;BME280;8055;51.930;8.840;2022-07-29T07:27:36;99594.41;;;18.57;56.14
15914;BME280;8055;51.930;8.840;2022-07-29T07:30:04;99589.97;;;18.74;55.63
15914;BME280;8055;51.930;8.840;2022-07-29T07:32:31;99591.22;;;18.90;55.20
15914;BME280;8055;51.930;8.840;2022-07-29T07:34:57;99594.47;;;18.99;55.00
15914;BME280;8055;51.930;8.840;2022-07-29T07:37:22;99589.34;;;19.02;55.07
15914;BME280;8055;51.930;8.840;2022-07-29T07:39:50;99589.38;;;19.26;54.32
15914;BME280;8055;51.930;8.840;2022-07-29T07:42:15;99595.31;;;19.53;53.72
15914;BME280;8055;51.930;8.840;2022-07-29T07:44:40;99593.19;;;19.78;54.16
15914;BME280;8055;51.930;8.840;2022-07-29T07:47:06;99590.50;;;20.07;52.99
15914;BME280;8055;51.930;8.840;2022-07-29T07:49:31;99591.69;;;20.23;52.07
15914;BME280;8055;51.930;8.840;2022-07-29T07:51:57;99598.50;;;20.32;50.62
15914;BME280;8055;51.930;8.840;2022-07-29T07:54:22;99596.09;;;20.36;49.29
15914;BME280;8055;51.930;8.840;2022-07-29T07:56:48;99610.56;;;20.43;50.26
15914;BME280;8055;51.930;8.840;2022-07-29T07:59:17;99620.63;;;20.49;50.17
15914;BME280;8055;51.930;8.840;2022-07-29T08:01:42;99628.31;;;20.59;51.14
15914;BME280;8055;51.930;8.840;2022-07-29T08:04:08;99621.97;;;20.58;50.13
15914;BME280;8055;51.930;8.840;2022-07-29T08:06:34;99630.09;;;20.65;49.85
15914;BME280;8055;51.930;8.840;2022-07-29T08:09:05;99624.09;;;20.68;49.34
15914;BME280;8055;51.930;8.840;2022-07-29T08:11:31;99620.69;;;20.77;50.35
15914;BME280;8055;51.930;8.840;2022-07-29T08:13:56;99622.22;;;20.85;49.44
15914;BME280;8055;51.930;8.840;2022-07-29T08:16:22;99625.66;;;20.92;48.51
15914;BME280;8055;51.930;8.840;2022-07-29T08:18:50;99632.97;;;20.98;49.56
15914;BME280;8055;51.930;8.840;2022-07-29T08:21:16;99629.59;;;20.96;49.77
15914;BME280;8055;51.930;8.840;2022-07-29T08:23:44;99622.19;;;20.97;48.64
15914;BME280;8055;51.930;8.840;2022-07-29T08:26:18;99622.19;;;20.97;48.93
15914;BME280;8055;51.930;8.840;2022-07-29T08:28:46;99629.75;;;20.90;49.35
15914;BME280;8055;51.930;8.840;2022-07-29T08:31:15;99625.00;;;20.85;48.74
15914;BME280;8055;51.930;8.840;2022-07-29T08:33:40;99630.84;;;20.89;48.86
15914;BME280;8055;51.930;8.840;2022-07-29T08:36:06;99626.09;;;20.84;49.22
15914;BME280;8055;51.930;8.840;2022-07-29T08:38:32;99631.16;;;20.75;48.85
15914;BME280;8055;51.930;8.840;2022-07-29T08:40:59;99629.22;;;20.76;49.10
15914;BME280;8055;51.930;8.840;2022-07-29T08:43:29;99634.63;;;20.71;48.25
15914;BME280;8055;51.930;8.840;2022-07-29T08:45:55;99638.00;;;20.73;48.75
15914;BME280;8055;51.930;8.840;2022-07-29T08:48:22;99634.25;;;20.79;48.33
15914;BME280;8055;51.930;8.840;2022-07-29T08:50:52;99638.03;;;20.90;47.92
15914;BME280;8055;51.930;8.840;2022-07-29T08:53:18;99633.94;;;20.92;48.03
15914;BME280;8055;51.930;8.840;2022-07-29T08:55:46;99636.63;;;20.87;47.99
15914;BME280;8055;51.930;8.840;2022-07-29T08:58:13;99631.69;;;20.89;48.56
15914;BME280;8055;51.930;8.840;2022-07-29T09:00:44;99627.00;;;20.90;47.96
15914;BME280;8055;51.930;8.840;2022-07-29T09:03:15;99630.75;;;20.84;48.72
15914;BME280;8055;51.930;8.840;2022-07-29T09:05:45;99625.47;;;20.82;48.50
15914;BME280;8055;51.930;8.840;2022-07-29T09:08:11;99628.63;;;20.74;48.94
15914;BME280;8055;51.930;8.840;2022-07-29T09:10:38;99626.34;;;20.71;48.96
15914;BME280;8055;51.930;8.840;2022-07-29T09:13:03;99626.34;;;20.71;50.82
15914;BME280;8055;51.930;8.840;2022-07-29T09:15:29;99624.31;;;20.78;49.83
15914;BME280;8055;51.930;8.840;2022-07-29T09:17:54;99626.56;;;20.81;49.59
15914;BME280;8055;51.930;8.840;2022-07-29T09:20:22;99619.00;;;20.76;49.94
15914;BME280;8055;51.930;8.840;2022-07-29T09:22:48;99616.16;;;20.71;49.59
15914;BME280;8055;51.930;8.840;2022-07-29T09:25:31;99613.31;;;20.66;49.91
15914;BME280;8055;51.930;8.840;2022-07-29T09:28:08;99616.22;;;20.60;50.27
15914;BME280;8055;51.930;8.840;2022-07-29T09:30:34;99606.84;;;20.61;50.14
15914;BME280;8055;51.930;8.840;2022-07-29T09:33:02;99612.13;;;20.50;50.33
15914;BME280;8055;51.930;8.840;2022-07-29T09:35:29;99611.91;;;20.52;51.15
15914;BME280;8055;51.930;8.840;2022-07-29T09:37:55;99607.81;;;20.54;51.13
15914;BME280;8055;51.930;8.840;2022-07-29T09:40:23;99602.16;;;20.49;50.95
15914;BME280;8055;51.930;8.840;2022-07-29T09:42:49;99606.50;;;20.57;50.85
15914;BME280;8055;51.930;8.840;2022-07-29T09:45:45;99606.00;;;20.60;50.82
15914;BME280;8055;51.930;8.840;2022-07-29T09:48:14;99607.81;;;20.54;50.58
15914;BME280;8055;51.930;8.840;2022-07-29T09:50:42;99602.16;;;20.61;50.66
15914;BME280;8055;51.930;8.840;2022-07-29T09:53:09;99608.16;;;20.58;50.23
15914;BME280;8055;51.930;8.840;2022-07-29T09:55:50;99608.38;;;20.68;50.39
15914;BME280;8055;51.930;8.840;2022-07-29T09:58:21;99607.28;;;20.69;49.99
15914;BME280;8055;51.930;8.840;2022-07-29T10:00:49;99606.66;;;20.79;51.33
15914;BME280;8055;51.930;8.840;2022-07-29T10:03:15;99604.91;;;20.90;50.29
15914;BME280;8055;51.930;8.840;2022-07-29T10:05:42;99600.44;;;21.00;49.74
15914;BME280;8055;51.930;8.840;2022-07-29T10:08:08;99605.63;;;21.14;49.76
15914;BME280;8055;51.930;8.840;2022-07-29T10:10:38;99600.28;;;21.24;49.60
15914;BME280;8055;51.930;8.840;2022-07-29T10:13:06;99601.81;;;21.32;48.63
15914;BME280;8055;51.930;8.840;2022-07-29T10:15:35;99597.91;;;21.44;49.41
15914;BME280;8055;51.930;8.840;2022-07-29T10:18:07;99595.63;;;21.58;49.39
15914;BME280;8055;51.930;8.840;2022-07-29T10:20:33;99595.22;;;21.66;48.96
15914;BME280;8055;51.930;8.840;2022-07-29T10:22:58;99596.38;;;21.70;48.72
15914;BME280;8055;51.930;8.840;2022-07-29T10:25:24;99590.16;;;21.80;48.66
15914;BME280;8055;51.930;8.840;2022-07-29T10:27:51;99587.00;;;21.88;48.74
15914;BME280;8055;51.930;8.840;2022-07-29T10:30:17;99584.53;;;21.92;48.20
15914;BME280;8055;51.930;8.840;2022-07-29T10:38:55;99590.06;;;21.92;47.07
15914;BME280;8055;51.930;8.840;2022-07-29T10:44:21;99581.13;;;21.85;46.35
15914;BME280;8055;51.930;8.840;2022-07-29T10:46:47;99582.19;;;21.84;45.52
15914;BME280;8055;51.930;8.840;2022-07-29T10:49:18;99597.13;;;21.83;46.42
15914;BME280;8055;51.930;8.840;2022-07-29T10:54:35;99589.88;;;21.99;46.28
15914;BME280;8055;51.930;8.840;2022-07-29T10:59:41;99588.00;;;22.21;47.19
15914;BME280;8055;51.930;8.840;2022-07-29T11:05:06;99586.06;;;22.44;46.56
15914;BME280;8055;51.930;8.840;2022-07-29T11:07:34;99593.63;;;22.48;46.15
15914;BME280;8055;51.930;8.840;2022-07-29T11:15:07;99597.41;;;22.64;45.78
15914;BME280;8055;51.930;8.840;2022-07-29T11:23:19;99587.69;;;22.61;46.85
15914;BME280;8055;51.930;8.840;2022-07-29T11:25:54;99593.69;;;22.75;46.61
15914;BME280;8055;51.930;8.840;2022-07-29T11:28:33;99587.25;;;22.97;45.80
15914;BME280;8055;51.930;8.840;2022-07-29T11:31:00;99586.66;;;23.22;44.67
15914;BME280;8055;51.930;8.840;2022-07-29T11:33:33;99582.84;;;23.60;44.13
15914;BME280;8055;51.930;8.840;2022-07-29T11:36:13;99584.63;;;24.14;44.12
15914;BME280;8055;51.930;8.840;2022-07-29T11:38:40;99581.19;;;24.49;43.02
15914;BME280;8055;51.930;8.840;2022-07-29T11:41:21;99586.56;;;24.81;42.02
15914;BME280;8055;51.930;8.840;2022-07-29T11:43:55;99584.44;;;25.24;41.06
15914;BME280;8055;51.930;8.840;2022-07-29T11:49:11;99585.56;;;25.38;38.90
15914;BME280;8055;51.930;8.840;2022-07-29T11:51:37;99579.72;;;25.50;39.14
15914;BME280;8055;51.930;8.840;2022-07-29T11:54:03;99580.00;;;25.79;39.33
15914;BME280;8055;51.930;8.840;2022-07-29T11:56:31;99569.41;;;25.97;40.04
15914;BME280;8055;51.930;8.840;2022-07-29T11:59:07;99564.22;;;26.50;39.50
15914;BME280;8055;51.930;8.840;2022-07-29T12:01:35;99559.34;;;26.11;37.29
15914;BME280;8055;51.930;8.840;2022-07-29T12:04:05;99561.63;;;25.89;38.50
15914;BME280;8055;51.930;8.840;2022-07-29T12:06:32;99558.31;;;25.61;39.38
15914;BME280;8055;51.930;8.840;2022-07-29T12:08:58;99562.47;;;25.43;39.59
15914;BME280;8055;51.930;8.840;2022-07-29T12:11:23;99561.09;;;25.41;40.75
15914;BME280;8055;51.930;8.840;2022-07-29T12:13:51;99561.63;;;25.48;40.04
15914;BME280;8055;51.930;8.840;2022-07-29T12:16:18;99564.16;;;25.44;40.10
15914;BME280;8055;51.930;8.840;2022-07-29T12:19:00;99551.63;;;25.82;40.41
15914;BME280;8055;51.930;8.840;2022-07-29T12:21:26;99562.47;;;25.69;40.03
15914;BME280;8055;51.930;8.840;2022-07-29T12:23:53;99558.13;;;26.38;40.42
15914;BME280;8055;51.930;8.840;2022-07-29T12:26:19;99552.59;;;26.22;39.21
15914;BME280;8055;51.930;8.840;2022-07-29T12:28:45;99544.50;;;26.26;39.31
15914;BME280;8055;51.930;8.840;2022-07-29T12:31:14;99545.94;;;26.83;39.35
15914;BME280;8055;51.930;8.840;2022-07-29T12:33:40;99538.53;;;27.08;38.96
15914;BME280;8055;51.930;8.840;2022-07-29T12:36:06;99539.44;;;27.32;38.09
15914;BME280;8055;51.930;8.840;2022-07-29T12:38:34;99541.47;;;27.27;38.33
15914;BME280;8055;51.930;8.840;2022-07-29T12:41:00;99540.44;;;27.07;38.57
15914;BME280;8055;51.930;8.840;2022-07-29T12:43:25;99539.81;;;26.76;38.76
15914;BME280;8055;51.930;8.840;2022-07-29T12:45:56;99541.19;;;26.84;39.11
15914;BME280;8055;51.930;8.840;2022-07-29T12:48:35;99542.50;;;26.96;38.85
15914;BME280;8055;51.930;8.840;2022-07-29T12:51:03;99537.16;;;27.05;38.57
15914;BME280;8055;51.930;8.840;2022-07-29T12:53:29;99530.47;;;27.40;38.31
15914;BME280;8055;51.930;8.840;2022-07-29T12:55:57;99527.91;;;27.44;38.09
15914;BME280;8055;51.930;8.840;2022-07-29T12:58:28;99529.00;;;27.14;37.09
15914;BME280;8055;51.930;8.840;2022-07-29T13:03:45;99528.00;;;26.94;37.65
15914;BME280;8055;51.930;8.840;2022-07-29T13:06:38;99524.38;;;26.99;37.30
15914;BME280;8055;51.930;8.840;2022-07-29T13:09:15;99528.78;;;27.05;38.26
15914;BME280;8055;51.930;8.840;2022-07-29T13:11:46;99518.19;;;27.71;36.87
15914;BME280;8055;51.930;8.840;2022-07-29T13:14:14;99521.47;;;27.78;37.50
15914;BME280;8055;51.930;8.840;2022-07-29T13:21:59;99511.66;;;28.28;36.92
15914;BME280;8055;51.930;8.840;2022-07-29T13:24:24;99510.50;;;27.86;35.29
15914;BME280;8055;51.930;8.840;2022-07-29T13:26:50;99509.66;;;27.28;36.95
15914;BME280;8055;51.930;8.840;2022-07-29T13:29:17;99519.47;;;27.20;37.18
15914;BME280;8055;51.930;8.840;2022-07-29T13:31:42;99517.75;;;26.85;37.25
15914;BME280;8055;51.930;8.840;2022-07-29T13:34:07;99509.81;;;26.68;37.34
15914;BME280;8055;51.930;8.840;2022-07-29T13:36:33;99510.06;;;26.66;38.12
15914;BME280;8055;51.930;8.840;2022-07-29T13:38:58;99498.41;;;26.64;38.17
15914;BME280;8055;51.930;8.840;2022-07-29T13:41:24;99500.66;;;26.57;38.27
15914;BME280;8055;51.930;8.840;2022-07-29T13:43:49;99501.72;;;26.66;37.72
15914;BME280;8055;51.930;8.840;2022-07-29T13:46:15;99497.59;;;26.59;38.34
15914;BME280;8055;51.930;8.840;2022-07-29T13:48:41;99492.06;;;26.53;38.01
15914;BME280;8055;51.930;8.840;2022-07-29T13:51:06;99502.47;;;26.27;37.87
15914;BME280;8055;51.930;8.840;2022-07-29T13:53:31;99487.78;;;26.17;38.75
15914;BME280;8055;51.930;8.840;2022-07-29T13:55:57;99496.34;;;26.25;38.32
15914;BME280;8055;51.930;8.840;2022-07-29T13:58:23;99490.28;;;26.13;38.44
15914;BME280;8055;51.930;8.840;2022-07-29T14:00:49;99487.31;;;26.54;37.48
15914;BME280;8055;51.930;8.840;2022-07-29T14:03:14;99488.34;;;27.08;37.99
15914;BME280;8055;51.930;8.840;2022-07-29T14:05:39;99493.75;;;27.28;37.59
15914;BME280;8055;51.930;8.840;2022-07-29T14:08:05;99489.31;;;27.27;36.41